Bartlett, Illinois
Current Conditions -  °F | °C
As of 5:52 PM on Sunday 23 Nov 2014 (Local Time) from KDPA Reporting Station
Moderate Rain Moderate Rain  
Wind Chill: 50°   Ceiling: 500
Heat Index: 50°   Visibility: 4mi
Dew Point: 49°   Wind: 6mph
Humidity: 96%   Direction: 100°E
Pressure: 29.35"   Gusts: NA
Location:  41.99°N, 88.18°W
Report Text: KDPA 232352Z 10005KT 4SM RA BR OVC005 10/09 A2935 RMK AO2 SLP941 P0009 60020 T01000094 10106 20100 58039
Loading
Personal Weather Stations






























Interactive Weather Map New forecast layout! Learn more

10-Day Weather Forecast

Advertisements
Track Severe Weather on mobile